Time;durP1;ratioP1;P1;durP2;ratioP2;P2;SDS_P1;SDS_P2;PMS_P1;PMS_P2;Temp;Humidity;BMP_temperature;BMP_pressure;BME280_temperature;BME280_humidity;BME280_pressure;Samples;Min_cycle;Max_cycle;Signal;HPM_P1;HPM_P2
2023/06/30 00:01:48;;;;;;;4.75;3.83;;;18.60;99.90;;;;;;4885259;29;20099;-80
2023/06/30 00:04:22;;;;;;;6.75;3.63;;;18.60;99.90;;;;;;4894545;29;20075;-80
2023/06/30 00:06:50;;;;;;;5.75;3.75;;;18.50;99.90;;;;;;4880222;29;20057;-80
2023/06/30 00:09:21;;;;;;;6.38;3.80;;;18.50;99.90;;;;;;4895867;29;20504;-80
2023/06/30 00:11:50;;;;;;;5.03;3.95;;;18.50;99.90;;;;;;4886108;29;20068;-80
2023/06/30 00:14:18;;;;;;;6.35;3.83;;;18.50;99.90;;;;;;4871290;29;20060;-80
2023/06/30 00:16:46;;;;;;;7.03;4.03;;;18.40;99.90;;;;;;4890736;29;20048;-80
2023/06/30 00:19:13;;;;;;;5.13;4.18;;;18.40;99.90;;;;;;4876289;29;20060;-80
2023/06/30 00:21:42;;;;;;;5.53;3.40;;;18.30;99.90;;;;;;4893328;29;20060;-80
2023/06/30 00:24:13;;;;;;;9.68;4.45;;;18.30;99.90;;;;;;4899821;29;20072;-80
2023/06/30 00:26:40;;;;;;;7.82;3.92;;;18.30;99.90;;;;;;4894719;29;21082;-80
2023/06/30 00:29:08;;;;;;;7.47;4.10;;;18.30;99.90;;;;;;4885345;29;20108;-80
2023/06/30 00:31:36;;;;;;;5.97;4.15;;;18.20;99.90;;;;;;4887642;29;20091;-80
2023/06/30 00:34:03;;;;;;;4.65;3.78;;;18.20;99.90;;;;;;4899242;29;20131;-80
2023/06/30 00:36:31;;;;;;;5.22;2.95;;;18.20;99.90;;;;;;4889028;29;20055;-80
2023/06/30 00:38:59;;;;;;;5.75;4.00;;;18.20;99.90;;;;;;4890246;29;20123;-80
2023/06/30 00:41:26;;;;;;;4.45;3.40;;;18.10;99.90;;;;;;4888632;29;20053;-80
2023/06/30 00:43:53;;;;;;;5.82;3.65;;;18.10;99.90;;;;;;4872284;29;20971;-80
2023/06/30 00:46:20;;;;;;;6.78;3.83;;;18.10;99.90;;;;;;4879391;29;22678;-80
2023/06/30 00:48:49;;;;;;;4.30;3.58;;;18.10;99.90;;;;;;4885007;29;20052;-80
2023/06/30 00:51:17;;;;;;;5.65;3.50;;;18.00;99.90;;;;;;4876334;29;20133;-79
2023/06/30 00:53:44;;;;;;;6.32;3.63;;;18.00;99.90;;;;;;4896232;29;20068;-80
2023/06/30 00:56:11;;;;;;;6.30;3.67;;;18.00;99.90;;;;;;4890373;29;20053;-80
2023/06/30 00:58:38;;;;;;;5.82;3.80;;;17.90;99.90;;;;;;4888492;29;20070;-80
2023/06/30 01:01:23;;;;;;;6.63;4.10;;;17.90;99.90;;;;;;4887241;29;20054;-80
2023/06/30 01:04:21;;;;;;;5.07;3.83;;;17.90;99.90;;;;;;4899369;29;20089;-80
2023/06/30 01:07:07;;;;;;;6.82;4.03;;;17.90;99.90;;;;;;4899489;29;20071;-80
2023/06/30 01:09:38;;;;;;;10.43;4.68;;;17.90;99.90;;;;;;4886821;29;20060;-80
2023/06/30 01:12:07;;;;;;;7.78;4.60;;;17.90;99.90;;;;;;4900722;29;20135;-80
2023/06/30 01:14:36;;;;;;;5.72;4.43;;;17.80;99.90;;;;;;4893210;29;20052;-80
2023/06/30 01:17:04;;;;;;;7.15;4.30;;;17.80;99.90;;;;;;4896308;29;20043;-80
2023/06/30 01:19:38;;;;;;;7.32;4.15;;;17.70;99.90;;;;;;4889918;29;20138;-80
2023/06/30 01:22:24;;;;;;;6.68;3.70;;;17.70;99.90;;;;;;4875855;29;20579;-79
2023/06/30 01:24:58;;;;;;;7.40;4.38;;;17.70;99.90;;;;;;4899693;29;20078;-80
2023/06/30 01:27:25;;;;;;;4.72;3.85;;;17.70;99.90;;;;;;4887609;29;20415;-80
2023/06/30 01:29:54;;;;;;;4.53;3.85;;;17.70;99.90;;;;;;4888736;29;20112;-80
2023/06/30 01:32:22;;;;;;;7.78;4.55;;;17.60;99.90;;;;;;4889152;29;20056;-80
2023/06/30 01:34:49;;;;;;;6.40;3.72;;;17.60;99.90;;;;;;4903783;29;20040;-80
2023/06/30 01:37:16;;;;;;;7.82;4.00;;;17.60;99.90;;;;;;4886170;29;22797;-80
2023/06/30 01:39:43;;;;;;;9.20;4.55;;;17.60;99.90;;;;;;4877871;29;20054;-79
2023/06/30 01:42:11;;;;;;;6.63;4.20;;;17.50;99.90;;;;;;4894576;29;20559;-80
2023/06/30 01:44:39;;;;;;;6.38;5.05;;;17.50;99.90;;;;;;4900502;29;20060;-80
2023/06/30 01:47:09;;;;;;;6.78;4.15;;;17.50;99.90;;;;;;4887011;29;20060;-80
2023/06/30 01:49:36;;;;;;;6.53;4.30;;;17.50;99.90;;;;;;4887890;29;20044;-80
2023/06/30 01:52:04;;;;;;;5.95;4.30;;;17.40;99.90;;;;;;4888961;29;20416;-79
2023/06/30 01:54:32;;;;;;;5.43;3.70;;;17.40;99.90;;;;;;4891788;29;20138;-81
2023/06/30 01:56:59;;;;;;;5.80;4.50;;;17.40;99.90;;;;;;4891671;29;20056;-81
2023/06/30 01:59:26;;;;;;;6.43;4.47;;;17.40;99.90;;;;;;4892696;29;20051;-81
2023/06/30 02:01:53;;;;;;;7.07;4.30;;;17.40;99.90;;;;;;4888578;29;20056;-81
2023/06/30 02:04:21;;;;;;;6.80;4.10;;;17.30;99.90;;;;;;4885767;29;20052;-81
2023/06/30 02:06:48;;;;;;;6.40;4.22;;;17.30;99.90;;;;;;4886623;29;20076;-81
2023/06/30 02:09:15;;;;;;;9.10;4.70;;;17.40;99.90;;;;;;4872468;29;20131;-81
2023/06/30 02:11:43;;;;;;;8.00;3.95;;;17.30;99.90;;;;;;4881932;29;20048;-81
2023/06/30 02:14:15;;;;;;;4.63;3.88;;;17.30;99.90;;;;;;4901022;29;20068;-81
2023/06/30 02:16:42;;;;;;;8.73;4.10;;;17.30;99.90;;;;;;4876178;29;20405;-81
2023/06/30 02:19:09;;;;;;;5.45;4.50;;;17.20;99.90;;;;;;4904591;29;20121;-81
2023/06/30 02:21:36;;;;;;;5.68;3.90;;;17.30;99.90;;;;;;4885052;29;20060;-81
2023/06/30 02:24:04;;;;;;;8.05;4.75;;;17.20;99.90;;;;;;4891373;29;21049;-80
2023/06/30 02:26:31;;;;;;;5.00;4.00;;;17.20;99.90;;;;;;4896231;29;20080;-80
2023/06/30 02:28:58;;;;;;;11.20;4.85;;;17.20;99.90;;;;;;4861254;29;20044;-80
2023/06/30 02:31:25;;;;;;;7.45;4.15;;;17.20;99.90;;;;;;4873720;29;20044;-80
2023/06/30 02:33:54;;;;;;;5.53;3.97;;;17.10;99.90;;;;;;4884651;29;20465;-80
2023/06/30 02:36:21;;;;;;;5.72;3.60;;;17.10;99.90;;;;;;4898242;29;20055;-80
2023/06/30 02:38:48;;;;;;;7.32;4.10;;;17.10;99.90;;;;;;4882177;29;20088;-80
2023/06/30 02:41:15;;;;;;;6.13;4.38;;;17.10;99.90;;;;;;4884499;29;20052;-80
2023/06/30 02:43:43;;;;;;;9.45;4.35;;;17.10;99.90;;;;;;4890994;29;20072;-80
2023/06/30 02:46:10;;;;;;;5.72;4.28;;;17.00;99.90;;;;;;4891776;29;20071;-80
2023/06/30 02:48:37;;;;;;;6.75;4.28;;;17.10;99.90;;;;;;4893349;29;20570;-80
2023/06/30 02:51:05;;;;;;;5.50;4.20;;;17.10;99.90;;;;;;4888243;29;20512;-80
2023/06/30 02:53:33;;;;;;;6.07;4.50;;;17.00;99.90;;;;;;4889077;29;20448;-80
2023/06/30 02:56:00;;;;;;;8.52;4.32;;;17.00;99.90;;;;;;4877984;29;20135;-80
2023/06/30 02:58:36;;;;;;;8.48;4.65;;;17.00;99.90;;;;;;4892589;29;20040;-80
2023/06/30 03:01:05;;;;;;;6.25;4.07;;;17.00;99.90;;;;;;4892125;29;20092;-80
2023/06/30 03:03:36;;;;;;;11.88;5.00;;;16.90;99.90;;;;;;4884826;29;20052;-80
2023/06/30 03:06:04;;;;;;;10.13;5.22;;;17.00;99.90;;;;;;4896194;29;20056;-80
2023/06/30 03:08:35;;;;;;;7.80;4.80;;;17.00;99.90;;;;;;4880726;29;20047;-80
2023/06/30 03:11:03;;;;;;;6.45;5.05;;;16.90;99.90;;;;;;4894885;29;20297;-80
2023/06/30 03:13:30;;;;;;;8.30;5.80;;;16.90;99.90;;;;;;4891675;29;20416;-80
2023/06/30 03:15:57;;;;;;;9.98;4.95;;;16.90;99.90;;;;;;4891637;29;20051;-80
2023/06/30 03:18:25;;;;;;;8.32;4.95;;;16.90;99.90;;;;;;4894988;29;20040;-80
2023/06/30 03:20:53;;;;;;;6.72;5.07;;;16.90;99.90;;;;;;4907753;29;20058;-80
2023/06/30 03:23:20;;;;;;;7.75;4.72;;;16.90;99.90;;;;;;4877465;29;20075;-80
2023/06/30 03:25:47;;;;;;;7.90;5.00;;;16.90;99.90;;;;;;4887741;29;20904;-80
2023/06/30 03:28:15;;;;;;;9.57;4.93;;;16.90;99.90;;;;;;4875308;29;20470;-79
2023/06/30 03:30:42;;;;;;;9.23;4.60;;;17.00;99.90;;;;;;4892139;29;20044;-80
2023/06/30 03:33:09;;;;;;;10.13;4.80;;;16.90;99.90;;;;;;4883963;29;20037;-80
2023/06/30 03:35:36;;;;;;;6.63;4.65;;;17.00;99.90;;;;;;4888986;29;20052;-80
2023/06/30 03:38:03;;;;;;;10.88;4.85;;;16.90;99.90;;;;;;4876358;29;20189;-80
2023/06/30 03:40:30;;;;;;;5.13;4.20;;;16.90;99.90;;;;;;4904276;29;20059;-80
2023/06/30 03:42:58;;;;;;;6.65;4.70;;;17.00;99.90;;;;;;4894596;29;20059;-80
2023/06/30 03:45:25;;;;;;;9.45;5.47;;;17.10;99.90;;;;;;4887243;29;20063;-80
2023/06/30 03:47:52;;;;;;;7.18;5.05;;;17.00;99.90;;;;;;4889224;29;20138;-80
2023/06/30 03:50:20;;;;;;;11.15;5.18;;;17.10;99.90;;;;;;4889755;29;22790;-80
2023/06/30 03:52:47;;;;;;;9.13;6.22;;;17.10;99.90;;;;;;4904187;29;21089;-80
2023/06/30 03:55:15;;;;;;;9.48;5.05;;;17.10;99.90;;;;;;4904153;29;20044;-80
2023/06/30 03:57:42;;;;;;;9.38;6.22;;;17.10;99.90;;;;;;4890034;29;20052;-80
2023/06/30 04:00:12;;;;;;;9.35;5.57;;;17.20;99.90;;;;;;4893891;29;23359;-80
2023/06/30 04:02:39;;;;;;;8.98;4.43;;;17.20;99.90;;;;;;4892985;29;20087;-80
2023/06/30 04:05:07;;;;;;;7.25;5.30;;;17.30;99.90;;;;;;4885044;29;20062;-80
2023/06/30 04:07:35;;;;;;;10.80;5.75;;;17.40;99.90;;;;;;4890374;29;20049;-80
2023/06/30 04:10:03;;;;;;;10.95;5.72;;;17.40;99.90;;;;;;4889648;29;20057;-80
2023/06/30 04:12:30;;;;;;;10.13;6.28;;;17.50;99.90;;;;;;4898876;29;20064;-80
2023/06/30 04:14:57;;;;;;;11.95;5.50;;;17.50;99.90;;;;;;4897036;29;20512;-80
2023/06/30 04:17:24;;;;;;;8.15;5.03;;;17.60;99.90;;;;;;4877859;29;20055;-80
2023/06/30 04:19:51;;;;;;;11.65;6.05;;;17.70;99.90;;;;;;4890084;29;20116;-80
2023/06/30 04:22:19;;;;;;;9.32;5.43;;;17.70;99.90;;;;;;4893646;29;20535;-80
2023/06/30 04:24:46;;;;;;;7.55;5.22;;;17.80;99.90;;;;;;4888585;29;20054;-80
2023/06/30 04:27:13;;;;;;;10.85;6.20;;;17.90;99.90;;;;;;4886784;29;20472;-80
2023/06/30 04:29:40;;;;;;;9.38;6.10;;;17.90;99.90;;;;;;4904699;29;20060;-80
2023/06/30 04:32:07;;;;;;;11.32;6.40;;;17.90;99.90;;;;;;4888133;29;20044;-80
2023/06/30 04:34:34;;;;;;;7.72;5.18;;;18.10;99.90;;;;;;4894871;29;20059;-80
2023/06/30 04:37:02;;;;;;;10.80;6.20;;;18.20;99.90;;;;;;4873395;29;20036;-80
2023/06/30 04:39:29;;;;;;;10.30;6.03;;;18.30;99.90;;;;;;4893736;29;20071;-80
2023/06/30 04:41:56;;;;;;;12.23;6.13;;;18.30;99.90;;;;;;4887250;29;20048;-80
2023/06/30 04:44:24;;;;;;;8.85;5.70;;;18.40;99.90;;;;;;4891454;29;20442;-80
2023/06/30 04:46:51;;;;;;;15.38;6.43;;;18.50;99.90;;;;;;4877279;29;20089;-80
2023/06/30 04:49:18;;;;;;;12.52;6.57;;;18.60;99.90;;;;;;4909328;29;20563;-80
2023/06/30 04:51:45;;;;;;;11.35;6.65;;;18.70;99.90;;;;;;4887637;29;20166;-80
2023/06/30 04:54:12;;;;;;;12.20;6.45;;;18.80;99.90;;;;;;4875297;29;20100;-80
2023/06/30 04:56:40;;;;;;;12.95;6.85;;;18.80;99.90;;;;;;4895914;29;20064;-80
2023/06/30 04:59:07;;;;;;;14.55;6.30;;;18.90;99.90;;;;;;4893516;29;20080;-80
2023/06/30 05:01:34;;;;;;;10.57;6.50;;;19.00;99.90;;;;;;4899332;29;20084;-80
2023/06/30 05:04:01;;;;;;;9.65;6.47;;;19.10;99.90;;;;;;4902068;29;20063;-80
2023/06/30 05:06:28;;;;;;;14.50;7.28;;;19.20;99.90;;;;;;4885922;29;20053;-80
2023/06/30 05:08:55;;;;;;;12.20;6.72;;;19.20;99.90;;;;;;4877195;29;20117;-80
2023/06/30 05:11:22;;;;;;;10.05;6.60;;;19.30;99.90;;;;;;4900269;29;20496;-80
2023/06/30 05:13:50;;;;;;;15.60;6.43;;;19.50;99.90;;;;;;4902353;29;20064;-80
2023/06/30 05:16:17;;;;;;;10.30;6.72;;;19.70;99.90;;;;;;4875756;29;20051;-80
2023/06/30 05:18:44;;;;;;;13.25;7.57;;;19.80;99.90;;;;;;4901755;29;20059;-79
2023/06/30 05:21:11;;;;;;;15.77;6.93;;;19.90;99.90;;;;;;4881928;29;20519;-80
2023/06/30 05:23:38;;;;;;;7.97;6.03;;;20.00;99.90;;;;;;4895497;29;20524;-80
2023/06/30 05:26:06;;;;;;;10.40;6.63;;;20.20;99.90;;;;;;4899115;29;20119;-79
2023/06/30 05:28:35;;;;;;;8.50;5.35;;;20.30;99.90;;;;;;4871953;29;20051;-79
2023/06/30 05:31:02;;;;;;;12.15;6.63;;;20.50;99.90;;;;;;4891644;29;20048;-79
2023/06/30 05:33:30;;;;;;;9.77;6.68;;;20.50;99.90;;;;;;4892604;29;20452;-79
2023/06/30 05:35:57;;;;;;;13.50;6.28;;;20.60;99.90;;;;;;4879086;29;20449;-80
2023/06/30 05:38:24;;;;;;;9.95;6.50;;;20.70;99.90;;;;;;4898381;29;20040;-79
2023/06/30 05:40:51;;;;;;;7.60;5.85;;;20.90;99.90;;;;;;4890711;29;20139;-79
2023/06/30 05:43:19;;;;;;;15.23;6.20;;;21.00;99.90;;;;;;4887946;29;20144;-79
2023/06/30 05:45:46;;;;;;;8.23;6.28;;;21.10;99.40;;;;;;4898852;29;20092;-79
2023/06/30 05:48:13;;;;;;;7.45;5.80;;;21.20;99.90;;;;;;4897641;29;20172;-79
2023/06/30 05:50:40;;;;;;;9.93;6.07;;;21.30;99.40;;;;;;4893855;29;20618;-79
2023/06/30 05:53:08;;;;;;;10.82;6.03;;;21.40;98.70;;;;;;4866972;29;20048;-80
2023/06/30 05:55:35;;;;;;;9.60;6.05;;;21.50;97.80;;;;;;4842246;29;20315;-79
2023/06/30 05:58:02;;;;;;;7.40;5.72;;;21.70;99.10;;;;;;4853380;29;20468;-79
2023/06/30 06:00:30;;;;;;;9.10;5.55;;;21.80;98.40;;;;;;4868457;29;20060;-79
2023/06/30 06:02:57;;;;;;;10.43;5.55;;;21.90;97.70;;;;;;4861602;29;20523;-79
2023/06/30 06:05:24;;;;;;;7.47;5.10;;;22.10;97.60;;;;;;4872610;29;20401;-79
2023/06/30 06:07:52;;;;;;;11.95;5.10;;;22.20;97.50;;;;;;4869988;29;20046;-79
2023/06/30 06:10:19;;;;;;;6.97;4.57;;;22.30;96.70;;;;;;4862991;29;20120;-79
2023/06/30 06:12:46;;;;;;;9.57;5.00;;;22.50;95.60;;;;;;4837418;29;20724;-79
2023/06/30 06:15:13;;;;;;;7.10;4.47;;;22.60;95.10;;;;;;4855348;29;20056;-79
2023/06/30 06:17:40;;;;;;;7.28;4.28;;;22.60;95.20;;;;;;4842689;29;20060;-79
2023/06/30 06:20:08;;;;;;;4.95;3.22;;;22.70;94.00;;;;;;4842116;29;20067;-79
2023/06/30 06:22:35;;;;;;;8.20;4.55;;;22.80;94.40;;;;;;4862501;29;20159;-78
2023/06/30 06:25:02;;;;;;;8.25;3.65;;;22.90;93.10;;;;;;4847635;29;20107;-79
2023/06/30 06:27:34;;;;;;;5.72;3.50;;;23.00;93.00;;;;;;4848147;29;20079;-79
2023/06/30 06:30:02;;;;;;;5.90;3.30;;;23.20;92.80;;;;;;4829468;29;20049;-80
2023/06/30 06:32:32;;;;;;;8.15;3.53;;;23.30;91.90;;;;;;4858290;29;20047;-78
2023/06/30 06:34:59;;;;;;;6.47;3.67;;;23.40;90.90;;;;;;4856774;29;20420;-80
2023/06/30 06:37:26;;;;;;;9.05;3.35;;;23.50;91.70;;;;;;4847968;29;20189;-79
2023/06/30 06:39:53;;;;;;;9.20;3.25;;;23.50;90.50;;;;;;4860509;29;20080;-78
2023/06/30 06:42:20;;;;;;;3.75;2.47;;;23.70;91.60;;;;;;4840622;29;20464;-79
2023/06/30 06:44:48;;;;;;;3.08;2.30;;;23.70;89.30;;;;;;4844195;29;20243;-78
2023/06/30 06:47:53;;;;;;;4.90;2.53;;;23.90;87.70;;;;;;4843683;29;20052;-78
2023/06/30 06:50:20;;;;;;;7.18;2.60;;;24.00;89.30;;;;;;4862806;29;20055;-79
2023/06/30 06:52:47;;;;;;;3.88;2.28;;;24.00;83.10;;;;;;4867277;29;22449;-79
2023/06/30 06:55:14;;;;;;;7.68;2.10;;;24.20;88.80;;;;;;4850305;29;20100;-79
2023/06/30 06:57:42;;;;;;;4.22;2.35;;;24.20;87.30;;;;;;4846566;29;20053;-79
2023/06/30 07:00:09;;;;;;;5.32;1.98;;;24.30;84.60;;;;;;4845141;29;21215;-79
2023/06/30 07:02:36;;;;;;;3.80;2.22;;;24.40;84.90;;;;;;4861923;29;20408;-78
2023/06/30 07:05:04;;;;;;;5.25;1.70;;;24.50;84.90;;;;;;4854012;29;20052;-79
2023/06/30 07:07:31;;;;;;;3.83;1.95;;;24.60;84.40;;;;;;4870411;29;20163;-79
2023/06/30 07:09:59;;;;;;;3.15;1.55;;;24.70;84.90;;;;;;4844321;29;20052;-78
2023/06/30 07:12:26;;;;;;;4.47;1.77;;;24.90;81.90;;;;;;4852905;29;20488;-77
2023/06/30 07:14:54;;;;;;;2.15;1.60;;;24.90;80.00;;;;;;4867926;29;20809;-78
2023/06/30 07:17:21;;;;;;;4.20;2.20;;;24.90;80.50;;;;;;4854692;29;20219;-78
2023/06/30 07:19:48;;;;;;;3.47;1.65;;;25.00;80.50;;;;;;4868432;29;22482;-78
2023/06/30 07:22:16;;;;;;;3.25;1.40;;;25.00;79.40;;;;;;4859458;29;20228;-80
2023/06/30 07:24:43;;;;;;;3.22;1.50;;;25.10;80.90;;;;;;4864464;29;20778;-80
2023/06/30 07:27:10;;;;;;;2.47;1.40;;;25.30;80.40;;;;;;4849147;29;20048;-81
2023/06/30 07:29:39;;;;;;;2.58;1.35;;;25.40;77.80;;;;;;4850837;29;20065;-77
2023/06/30 07:32:07;;;;;;;6.13;1.67;;;25.40;79.40;;;;;;4868212;29;20185;-76
2023/06/30 07:34:34;;;;;;;5.80;1.45;;;25.50;78.10;;;;;;4874488;29;20051;-77
2023/06/30 07:37:05;;;;;;;3.25;0.85;;;25.40;75.60;;;;;;4870598;29;20048;-77
2023/06/30 07:39:35;;;;;;;3.47;1.40;;;25.70;76.70;;;;;;4848681;29;20377;-79
2023/06/30 07:42:02;;;;;;;4.20;2.15;;;25.80;75.20;;;;;;4860420;29;20060;-82
2023/06/30 07:44:31;;;;;;;3.70;1.45;;;25.90;74.10;;;;;;4849800;29;20588;-80
2023/06/30 07:46:58;;;;;;;3.42;1.40;;;25.90;74.70;;;;;;4858720;29;20190;-79
2023/06/30 07:49:27;;;;;;;2.08;1.50;;;25.90;73.70;;;;;;4849442;29;20064;-78
2023/06/30 07:51:54;;;;;;;2.70;1.40;;;25.90;75.00;;;;;;4868323;29;20048;-79
2023/06/30 07:54:21;;;;;;;3.55;1.05;;;25.90;73.80;;;;;;4861079;29;20135;-78
2023/06/30 07:56:48;;;;;;;2.03;1.00;;;26.00;73.10;;;;;;4841958;29;20084;-78
2023/06/30 07:59:15;;;;;;;2.65;1.10;;;26.10;71.40;;;;;;4856368;29;20058;-78
2023/06/30 08:01:42;;;;;;;3.33;1.20;;;26.10;70.20;;;;;;4855192;29;20500;-77
2023/06/30 08:04:11;;;;;;;3.67;0.73;;;26.20;70.90;;;;;;4863750;29;20683;-81
2023/06/30 08:06:38;;;;;;;2.88;1.00;;;26.20;69.80;;;;;;4867386;29;20067;-79
2023/06/30 08:09:05;;;;;;;1.70;0.77;;;26.20;70.70;;;;;;4854338;29;20048;-78
2023/06/30 08:11:32;;;;;;;1.60;0.90;;;26.20;69.90;;;;;;4841000;29;20040;-79
2023/06/30 08:14:01;;;;;;;3.92;0.80;;;26.20;68.70;;;;;;4874056;29;20060;-80
2023/06/30 08:16:29;;;;;;;2.80;0.73;;;26.30;68.80;;;;;;4872661;29;20048;-80
2023/06/30 08:18:56;;;;;;;2.42;0.90;;;26.20;68.00;;;;;;4855513;29;20091;-77
2023/06/30 08:21:24;;;;;;;1.90;0.65;;;26.30;69.50;;;;;;4855246;29;20060;-80
2023/06/30 08:23:51;;;;;;;1.50;0.73;;;26.30;68.80;;;;;;4882887;29;20578;-79
2023/06/30 08:26:18;;;;;;;1.40;0.80;;;26.40;68.70;;;;;;4869395;29;20104;-80
2023/06/30 08:28:46;;;;;;;3.40;0.65;;;26.40;67.90;;;;;;4860580;29;20063;-78
2023/06/30 08:31:13;;;;;;;2.20;1.17;;;26.40;68.00;;;;;;4844310;29;20056;-78
2023/06/30 08:33:40;;;;;;;6.32;2.08;;;26.50;69.90;;;;;;4848249;29;20052;-81
2023/06/30 08:36:07;;;;;;;1.70;0.70;;;26.60;70.60;;;;;;4856873;29;20063;-78
2023/06/30 08:38:35;;;;;;;4.47;1.02;;;26.60;67.40;;;;;;4864628;29;20044;-78
2023/06/30 08:41:02;;;;;;;4.38;0.90;;;26.60;68.40;;;;;;4856929;29;20044;-79
2023/06/30 08:43:31;;;;;;;2.33;1.30;;;26.60;67.70;;;;;;4863849;29;20052;-78
2023/06/30 08:46:03;;;;;;;3.75;1.10;;;26.50;67.30;;;;;;4848853;29;20594;-80
2023/06/30 08:48:32;;;;;;;2.47;0.57;;;26.60;69.10;;;;;;4851791;29;20056;-79
2023/06/30 08:51:00;;;;;;;1.40;0.70;;;26.60;68.60;;;;;;4861930;29;20048;-81
2023/06/30 08:53:28;;;;;;;2.13;0.80;;;26.70;67.90;;;;;;4838656;29;20055;-79
2023/06/30 08:55:58;;;;;;;2.28;0.88;;;26.70;68.30;;;;;;4853401;29;20084;-78
2023/06/30 08:58:27;;;;;;;2.85;0.68;;;26.50;65.80;;;;;;4866985;29;20060;-80
2023/06/30 09:00:57;;;;;;;2.22;0.70;;;26.60;67.90;;;;;;4859922;29;20065;-81
2023/06/30 09:03:26;;;;;;;3.33;0.70;;;26.70;68.40;;;;;;4857085;29;20103;-77
2023/06/30 09:05:56;;;;;;;1.55;0.85;;;26.70;66.80;;;;;;4853946;29;20638;-79
2023/06/30 09:08:27;;;;;;;1.92;0.80;;;26.80;67.80;;;;;;4868004;29;20443;-80
2023/06/30 09:10:55;;;;;;;3.80;1.20;;;26.80;66.70;;;;;;4869558;29;20062;-80
2023/06/30 09:13:23;;;;;;;1.80;0.80;;;26.90;66.50;;;;;;4855194;29;20559;-79
2023/06/30 09:15:54;;;;;;;2.13;1.05;;;26.90;65.90;;;;;;4856353;29;20539;-79
2023/06/30 09:18:21;;;;;;;3.63;0.90;;;26.80;66.60;;;;;;4870986;29;20052;-79
2023/06/30 09:20:49;;;;;;;2.50;1.33;;;26.90;66.50;;;;;;4859003;29;20702;-79
2023/06/30 09:23:17;;;;;;;2.83;2.00;;;26.90;66.40;;;;;;4872082;29;20156;-80
2023/06/30 09:25:44;;;;;;;3.22;2.08;;;26.80;66.20;;;;;;4854304;29;20780;-80
2023/06/30 09:28:14;;;;;;;4.10;1.85;;;26.90;68.00;;;;;;4860811;29;22269;-78
2023/06/30 09:30:46;;;;;;;2.25;1.63;;;26.90;66.90;;;;;;4863463;29;20164;-78
2023/06/30 09:33:15;;;;;;;2.45;1.60;;;27.00;68.70;;;;;;4865125;29;20607;-82
2023/06/30 09:35:47;;;;;;;3.47;1.50;;;26.90;65.20;;;;;;4865936;29;20052;-81
2023/06/30 09:38:17;;;;;;;3.95;1.83;;;26.80;64.00;;;;;;4857819;29;20049;-78
2023/06/30 09:40:49;;;;;;;4.05;1.80;;;26.80;65.10;;;;;;4852678;29;20052;-82
2023/06/30 09:43:17;;;;;;;;;;;26.90;66.60;;;;;;4870355;29;20067;-79
2023/06/30 09:46:04;;;;;;;1.50;0.85;;;27.00;65.70;;;;;;4856411;29;20120;-82
2023/06/30 09:48:34;;;;;;;4.03;1.30;;;27.00;66.70;;;;;;4860493;29;20060;-80
2023/06/30 09:51:02;;;;;;;2.63;0.80;;;27.00;66.10;;;;;;4856305;29;20135;-82
2023/06/30 09:53:37;;;;;;;2.30;1.23;;;27.00;66.00;;;;;;4841040;29;20056;-79
2023/06/30 09:56:04;;;;;;;1.83;0.68;;;27.10;65.40;;;;;;4873079;29;20052;-81
2023/06/30 09:58:31;;;;;;;3.85;0.70;;;27.10;63.70;;;;;;4868527;29;20040;-80
2023/06/30 10:00:58;;;;;;;1.63;0.40;;;26.90;63.60;;;;;;4871698;29;20432;-80
2023/06/30 10:03:26;;;;;;;2.28;0.60;;;27.00;63.60;;;;;;4869296;29;20079;-80
2023/06/30 10:05:53;;;;;;;1.33;0.30;;;27.00;63.50;;;;;;4861648;29;20882;-82
2023/06/30 10:08:22;;;;;;;0.93;0.40;;;27.20;64.60;;;;;;4857678;29;20091;-79
2023/06/30 10:10:53;;;;;;;1.52;0.50;;;27.10;61.70;;;;;;4866963;29;20049;-80
2023/06/30 10:13:21;;;;;;;1.25;0.57;;;27.20;64.70;;;;;;4844993;29;20064;-82
2023/06/30 10:15:50;;;;;;;3.35;0.50;;;27.30;63.00;;;;;;4857647;29;20052;-80
2023/06/30 10:18:19;;;;;;;1.58;0.70;;;27.30;63.30;;;;;;4858816;29;20064;-78
2023/06/30 10:20:47;;;;;;;0.68;0.40;;;27.20;62.40;;;;;;4877237;29;20055;-81
2023/06/30 10:23:22;;;;;;;1.95;0.68;;;27.20;63.60;;;;;;4837663;29;20211;-79
2023/06/30 10:25:50;;;;;;;1.58;0.60;;;27.30;63.60;;;;;;4864458;29;20051;-82
2023/06/30 10:28:19;;;;;;;6.15;1.33;;;27.40;63.10;;;;;;4853694;29;20547;-78
2023/06/30 10:30:49;;;;;;;2.50;0.40;;;27.50;62.90;;;;;;4857391;29;20079;-81
2023/06/30 10:33:17;;;;;;;1.58;0.30;;;27.40;61.90;;;;;;4869453;29;20048;-81
2023/06/30 10:35:47;;;;;;;1.75;0.40;;;27.30;62.20;;;;;;4839666;29;20055;-82
2023/06/30 10:38:15;;;;;;;3.90;0.40;;;27.30;63.10;;;;;;4882987;29;20051;-82
2023/06/30 10:40:42;;;;;;;1.13;0.40;;;27.30;60.80;;;;;;4868613;29;20148;-80
2023/06/30 10:43:10;;;;;;;2.72;0.40;;;27.30;62.10;;;;;;4867523;29;20120;-80
2023/06/30 10:46:04;;;;;;;3.22;0.70;;;27.30;62.70;;;;;;4853392;29;20060;-79
2023/06/30 10:48:31;;;;;;;1.35;0.40;;;27.20;62.00;;;;;;4855207;29;20063;-82
2023/06/30 10:50:58;;;;;;;0.50;0.40;;;27.20;62.50;;;;;;4880227;29;20072;-79
2023/06/30 10:53:27;;;;;;;3.13;0.40;;;27.20;62.40;;;;;;4866630;29;20060;-78
2023/06/30 10:55:57;;;;;;;2.05;0.40;;;27.30;63.00;;;;;;4858567;29;20045;-81
2023/06/30 10:58:26;;;;;;;0.93;0.50;;;27.40;62.70;;;;;;4854584;29;20044;-80
2023/06/30 11:01:06;;;;;;;1.83;0.45;;;27.50;63.10;;;;;;4841307;29;20379;-77
2023/06/30 11:03:56;;;;;;;3.40;0.60;;;27.50;62.40;;;;;;4845382;29;20048;-79
2023/06/30 11:06:25;;;;;;;1.00;0.43;;;27.60;63.10;;;;;;4867340;29;20067;-81
2023/06/30 11:09:00;;;;;;;1.30;0.40;;;27.50;62.90;;;;;;4889733;29;20056;-80
2023/06/30 11:11:27;;;;;;;1.60;0.52;;;27.50;61.70;;;;;;4871108;29;20044;-78
2023/06/30 11:14:05;;;;;;;1.77;0.50;;;27.60;62.20;;;;;;4858068;29;20704;-78
2023/06/30 11:17:04;;;;;;;2.35;0.60;;;27.70;63.60;;;;;;4864979;29;20397;-80
2023/06/30 11:19:32;;;;;;;1.13;0.47;;;27.60;62.50;;;;;;4877333;29;20052;-79
2023/06/30 11:22:21;;;;;;;2.08;0.57;;;27.60;62.10;;;;;;4871927;29;20595;-78
2023/06/30 11:24:49;;;;;;;0.75;0.40;;;27.80;64.00;;;;;;4855821;29;22472;-79
2023/06/30 11:27:16;;;;;;;1.88;0.40;;;27.80;62.20;;;;;;4858038;29;20051;-78
2023/06/30 11:29:45;;;;;;;2.67;0.68;;;27.80;60.80;;;;;;4838617;29;20060;-79
2023/06/30 11:32:15;;;;;;;2.63;0.50;;;27.80;62.00;;;;;;4869488;29;20207;-79
2023/06/30 11:34:42;;;;;;;1.63;0.50;;;27.70;61.60;;;;;;4843643;29;20060;-80
2023/06/30 11:37:09;;;;;;;2.33;0.50;;;27.80;63.30;;;;;;4851947;29;20048;-78
2023/06/30 11:39:36;;;;;;;2.63;0.50;;;27.90;63.40;;;;;;4870605;29;20040;-78
2023/06/30 11:42:04;;;;;;;2.08;0.57;;;27.90;63.70;;;;;;4856491;29;20056;-79
2023/06/30 11:44:36;;;;;;;2.65;0.55;;;27.80;62.90;;;;;;4870954;29;20533;-82
2023/06/30 11:47:04;;;;;;;0.70;0.40;;;27.80;62.10;;;;;;4842511;29;20555;-79
2023/06/30 11:49:36;;;;;;;1.20;0.60;;;27.60;60.40;;;;;;4862593;29;20353;-80
2023/06/30 11:52:07;;;;;;;0.80;0.43;;;27.60;62.00;;;;;;4873277;29;20527;-78
2023/06/30 11:54:36;;;;;;;3.05;0.95;;;27.70;62.60;;;;;;4857403;29;20058;-79
2023/06/30 11:57:04;;;;;;;3.90;0.40;;;27.70;60.70;;;;;;4864529;29;20055;-81
2023/06/30 11:59:32;;;;;;;5.47;1.88;;;27.80;62.10;;;;;;4856651;29;20048;-78
2023/06/30 12:02:02;;;;;;;3.22;1.75;;;27.80;62.00;;;;;;4879039;29;20505;-79
2023/06/30 12:04:35;;;;;;;2.28;1.05;;;27.80;62.80;;;;;;4852634;29;20748;-81
2023/06/30 12:07:05;;;;;;;2.20;0.82;;;27.90;63.00;;;;;;4866813;29;20557;-81
2023/06/30 12:09:34;;;;;;;1.40;0.75;;;27.80;62.80;;;;;;4873494;29;20056;-78
2023/06/30 12:12:01;;;;;;;1.98;1.10;;;27.90;63.10;;;;;;4860006;29;20129;-78
2023/06/30 12:14:28;;;;;;;1.75;1.00;;;27.80;62.60;;;;;;4869393;29;23399;-78
2023/06/30 12:16:57;;;;;;;1.40;0.80;;;27.80;63.00;;;;;;4858425;29;22822;-78
2023/06/30 12:19:28;;;;;;;2.05;1.10;;;27.70;61.60;;;;;;4873194;29;20172;-81
2023/06/30 12:22:00;;;;;;;1.45;0.73;;;27.30;62.30;;;;;;4857302;29;20135;-78
2023/06/30 12:24:34;;;;;;;2.25;0.60;;;27.20;61.50;;;;;;4865654;29;20072;-75
2023/06/30 12:27:08;;;;;;;2.38;0.98;;;27.10;63.60;;;;;;4857935;29;20056;-78
2023/06/30 12:29:36;;;;;;;4.00;0.90;;;27.50;64.50;;;;;;4871139;29;20048;-77
2023/06/30 12:32:16;;;;;;;2.17;0.77;;;27.50;61.60;;;;;;4882531;29;20161;-78
2023/06/30 12:34:45;;;;;;;2.10;0.70;;;27.50;61.50;;;;;;4862761;29;20056;-78
2023/06/30 12:37:18;;;;;;;2.53;0.90;;;27.60;61.40;;;;;;4856083;29;20051;-78
2023/06/30 12:39:46;;;;;;;2.35;0.60;;;27.60;62.90;;;;;;4872129;29;20051;-81
2023/06/30 12:42:14;;;;;;;1.60;0.75;;;27.70;62.10;;;;;;4864480;29;20197;-82
2023/06/30 12:45:01;;;;;;;1.73;0.77;;;27.70;61.90;;;;;;4863264;29;20561;-77
2023/06/30 12:47:28;;;;;;;2.83;0.60;;;27.60;61.80;;;;;;4837178;29;20068;-77
2023/06/30 12:49:55;;;;;;;2.00;0.85;;;27.60;63.50;;;;;;4856006;29;20249;-79
2023/06/30 12:52:23;;;;;;;2.05;1.20;;;27.60;62.40;;;;;;4869701;29;20056;-78
2023/06/30 12:54:50;;;;;;;2.08;0.50;;;27.70;61.70;;;;;;4860083;29;20091;-82